Latest Coastal Weather Observations for Kiama

IDN60701

Issued at 6:25 pm EST Monday 21 April 2014 (issued every 10 minutes, with the page automatically refreshed every 10 minutes)

About coastal observations | Map of coastal stations | Coastal observations for NSW | Marine services | Other Formats
Station Details ID: 068242 Name: KIAMA (BOMBO HEADLAND) Lat: -34.65 Lon: 150.86 Height: 15.5 m
Data from the previous 72 hours. | See also: Recent months at Kiama
Date/Time
EST
Temp

°C
Wind Pressure Rain
since 9am
mm
Weather Cloud Vis
km
Sea
Height
m
Swell
Dir
 
Speed
knots
Gust
knots
hPa Trend Height
m
Period
s
Dir
21/06:00pm 17.7 SW 3 3 - - 0.0 - - - - - - -
21/05:30pm 19.2 SSW 5 7 - - 0.0 - - - - - - -
21/05:00pm 20.0 S 7 8 - - 0.0 - - - - - - -
21/04:30pm 20.5 S 8 10 - - 0.0 - - - - - - -
21/04:00pm 21.1 S 9 12 - - 0.0 - - - - - - -
21/03:30pm 21.3 S 10 13 - - 0.0 - - - - - - -
21/03:00pm 21.5 S 10 14 - - 0.0 - - - - - - -
21/02:30pm 21.6 S 10 13 - - 0.0 - - - - - - -
21/02:00pm 21.5 S 11 14 - - 0.0 - - - - - - -
21/01:30pm 21.5 S 13 16 - - 0.0 - - - - - - -
21/01:00pm 21.8 S 11 15 - - 0.0 - - - - - - -
21/12:30pm 22.1 S 9 12 - - 0.0 - - - - - - -
21/12:00pm 22.5 S 9 11 - - 0.0 - - - - - - -
21/11:30am 21.7 S 8 11 - - 0.0 - - - - - - -
21/11:00am 21.7 S 8 11 - - 0.0 - - - - - - -
21/10:30am 21.3 S 8 11 - - 0.0 - - - - - - -
21/10:00am 21.7 S 2 4 - - 0.0 - - - - - - -
21/09:30am 20.8 CALM 0 1 - - 0.0 - - - - - - -
21/09:00am 19.9 CALM 0 0 - - 0.0 - - - - - - -
21/08:30am 18.3 CALM 0 2 - - 0.0 - - - - - - -
21/08:00am 16.6 NW 1 2 - - 0.0 - - - - - - -
21/07:30am 15.0 WNW 3 5 - - 0.0 - - - - - - -
21/07:00am 13.5 WNW 4 5 - - 0.0 - - - - - - -
21/06:30am 12.7 WNW 4 6 - - 0.0 - - - - - - -
21/06:00am 12.9 WNW 6 8 - - 0.0 - - - - - - -
21/05:30am 12.7 WNW 4 6 - - 0.0 - - - - - - -
21/05:00am 13.2 WNW 6 9 - - 0.0 - - - - - - -
21/04:30am 13.3 WNW 5 7 - - 0.0 - - - - - - -
21/04:00am 13.5 WNW 6 8 - - 0.0 - - - - - - -
21/03:30am 13.3 WNW 4 6 - - 0.0 - - - - - - -
21/03:00am 13.8 W 6 9 - - 0.0 - - - - - - -
21/02:30am 14.5 SSW 5 8 - - 0.0 - - - - - - -
21/02:00am 14.6 WSW 4 8 - - 0.0 - - - - - - -
21/01:30am 14.9 W 10 14 - - 0.0 - - - - - - -
21/01:00am 14.8 WSW 7 12 - - 0.0 - - - - - - -
21/12:30am 14.9 SW 5 8 - - 0.0 - - - - - - -
21/12:00am 14.9 SW 5 7 - - 0.0 - - - - - - -
 
Date/Time
EST
Temp

°C
Wind Pressure Rain
since 9am
mm
Weather Cloud Vis
km
Sea
Height
m
Swell
Dir
 
Speed
knots
Gust
knots
hPa Trend Height
m
Period
s
Dir
20/11:30pm 15.3 SW 4 7 - - 0.0 - - - - - - -
20/11:00pm 15.5 WSW 10 15 - - 0.0 - - - - - - -
20/10:30pm 15.6 W 9 13 - - 0.0 - - - - - - -
20/10:00pm 16.0 W 9 14 - - 0.0 - - - - - - -
20/09:30pm 16.1 W 10 13 - - 0.0 - - - - - - -
20/09:00pm 16.3 WSW 5 9 - - 0.0 - - - - - - -
20/08:30pm 15.8 WSW 3 5 - - 0.0 - - - - - - -
20/08:00pm 17.0 SW 7 10 - - 0.0 - - - - - - -
20/07:30pm 17.7 WSW 7 9 - - 0.0 - - - - - - -
20/07:00pm 17.3 WSW 4 6 - - 0.0 - - - - - - -
20/06:30pm 17.7 W 3 6 - - 0.0 - - - - - - -
20/06:00pm 18.5 WNW 3 5 - - 0.0 - - - - - - -
20/05:30pm 19.6 N 6 9 - - 0.0 - - - - - - -
20/05:00pm 20.2 NNE 7 10 - - 0.0 - - - - - - -
20/04:30pm 21.7 NNE 7 10 - - 0.0 - - - - - - -
20/04:00pm 22.1 NNE 8 12 - - 0.0 - - - - - - -
20/03:30pm 22.9 NNE 9 12 - - 0.0 - - - - - - -
20/03:00pm 22.9 NE 11 15 - - 0.0 - - - - - - -
20/02:30pm 22.4 NNE 11 16 - - 0.0 - - - - - - -
20/02:00pm 21.9 NNE 11 16 - - 0.0 - - - - - - -
20/01:30pm 22.6 NE 11 15 - - 0.0 - - - - - - -
20/01:00pm 23.0 NE 10 13 - - 0.0 - - - - - - -
20/12:30pm 22.9 NNE 9 13 - - 0.0 - - - - - - -
20/12:00pm 22.4 NNE 9 12 - - 0.0 - - - - - - -
20/11:30am 22.2 NNE 9 12 - - 0.0 - - - - - - -
20/11:00am 22.0 NNE 7 10 - - 0.0 - - - - - - -
20/10:30am 21.3 N 6 9 - - 0.0 - - - - - - -
20/10:00am 20.6 NNE 5 7 - - 0.0 - - - - - - -
20/09:30am 19.6 N 4 5 - - 0.0 - - - - - - -
20/09:00am 18.6 N 3 5 - - - - - - - - - -
20/08:30am 17.0 NW 4 6 - - - - - - - - - -
20/08:00am 15.7 NW 3 4 - - - - - - - - - -
20/07:30am 13.5 W 5 7 - - - - - - - - - -
20/07:00am 11.8 W 4 6 - - - - - - - - - -
20/06:30am 11.2 W 4 5 - - - - - - - - - -
20/06:00am 11.4 W 3 3 - - - - - - - - - -
20/05:30am 11.7 SW 4 4 - - - - - - - - - -
20/05:00am 11.5 W 4 5 - - - - - - - - - -
20/04:30am 11.4 W 5 6 - - - - - - - - - -
20/04:00am 11.7 WSW 3 4 - - - - - - - - - -
20/03:30am 11.7 WSW 3 4 - - - - - - - - - -
20/03:00am 12.0 WSW 3 4 - - 0.0 - - - - - - -
20/02:30am 12.6 W 4 4 - - - - - - - - - -
20/02:00am 12.7 W 6 7 - - - - - - - - - -
20/01:30am 12.7 W 6 7 - - - - - - - - - -
20/01:00am 13.4 W 6 8 - - - - - - - - - -
20/12:30am 13.0 W 5 7 - - - - - - - - - -
20/12:00am 13.3 W 5 7 - - - - - - - - - -
 
Date/Time
EST
Temp

°C
Wind Pressure Rain
since 9am
mm
Weather Cloud Vis
km
Sea
Height
m
Swell
Dir
 
Speed
knots
Gust
knots
hPa Trend Height
m
Period
s
Dir
19/11:30pm 13.3 W 5 7 - - - - - - - - - -
19/11:00pm 13.7 W 6 8 - - - - - - - - - -
19/10:30pm 13.6 W 5 7 - - - - - - - - - -
19/10:00pm 13.8 W 6 7 - - - - - - - - - -
19/09:30pm 13.7 W 6 8 - - - - - - - - - -
19/09:00pm 13.9 W 6 8 - - - - - - - - - -
19/08:30pm 13.8 WSW 4 6 - - - - - - - - - -
19/08:00pm 13.9 WSW 4 5 - - 0.0 - - - - - - -
19/07:30pm 14.2 W 3 5 - - 0.0 - - - - - - -
19/07:00pm 14.4 WSW 3 4 - - 0.0 - - - - - - -
19/06:30pm 15.6 SW 4 8 - - 0.0 - - - - - - -
19/06:00pm 17.0 SSW 9 11 - - 0.0 - - - - - - -
19/05:30pm 17.3 SSW 10 16 - - 0.0 - - - - - - -
19/05:00pm 18.4 S 12 15 - - 0.0 - - - - - - -
19/04:30pm 18.7 S 12 18 - - 0.0 - - - - - - -
19/04:00pm 18.8 S 15 19 - - 0.0 - - - - - - -
19/03:30pm 19.0 S 15 19 - - 0.0 - - - - - - -
19/03:00pm 19.1 S 15 21 - - 0.0 - - - - - - -
19/02:30pm 19.3 S 14 18 - - 0.0 - - - - - - -
19/02:00pm 19.3 S 14 18 - - 0.0 - - - - - - -
19/01:30pm 19.3 S 14 19 - - 0.0 - - - - - - -
19/01:00pm 19.0 S 13 18 - - 0.0 - - - - - - -
19/12:30pm 19.0 S 12 19 - - 0.0 - - - - - - -
19/12:00pm 19.2 S 11 16 - - 0.0 - - - - - - -
19/11:30am 19.2 SSW 10 14 - - 0.0 - - - - - - -
19/11:00am 18.9 S 15 19 - - 0.0 - - - - - - -
19/10:30am 19.1 SSW 12 16 - - 0.0 - - - - - - -
19/10:00am 18.7 SSW 10 14 - - 0.0 - - - - - - -
19/09:30am 18.2 SSW 12 18 - - 0.0 - - - - - - -
19/09:00am 17.9 SSW 13 19 - - 0.0 - - - - - - -
19/08:30am 17.1 SSW 14 18 - - 0.0 - - - - - - -
19/08:00am 16.8 SSW 14 18 - - 0.0 - - - - - - -
19/07:30am 16.5 SSW 14 19 - - 0.0 - - - - - - -
19/07:00am 16.3 SSW 10 15 - - 0.0 - - - - - - -
19/06:30am 15.5 SW 5 7 - - 0.0 - - - - - - -
19/06:00am 15.2 WSW 4 6 - - 0.0 - - - - - - -
19/05:30am 15.5 WSW 5 7 - - 0.0 - - - - - - -
19/05:00am 16.5 SSW 6 10 - - 0.0 - - - - - - -
19/04:30am 17.0 SSW 10 13 - - 0.0 - - - - - - -
19/04:00am 16.8 SSW 9 12 - - 0.0 - - - - - - -
19/03:30am 17.2 S 8 10 - - 0.0 - - - - - - -
19/03:00am 17.5 S 8 11 - - 0.0 - - - - - - -
19/02:30am 17.9 SSW 8 11 - - 0.0 - - - - - - -
19/02:00am 18.0 SSW 11 17 - - 0.0 - - - - - - -
19/01:30am 18.3 SSW 11 14 - - 0.0 - - - - - - -
19/01:00am 18.8 SSW 12 16 - - 0.0 - - - - - - -
19/12:30am 18.9 SSW 13 18 - - 0.0 - - - - - - -
19/12:00am 19.3 SSW 15 19 - - 0.0 - - - - - - -
 
Date/Time
EST
Temp

°C
Wind Pressure Rain
since 9am
mm
Weather Cloud Vis
km
Sea
Height
m
Swell
Dir
 
Speed
knots
Gust
knots
hPa Trend Height
m
Period
s
Dir
18/11:30pm 19.5 SSW 15 18 - - 0.0 - - - - - - -
18/11:00pm 19.8 WSW 12 19 - - 0.0 - - - - - - -
18/10:30pm 19.6 WSW 10 18 - - 0.0 - - - - - - -
18/10:00pm 19.3 SW 8 13 - - 0.0 - - - - - - -
18/09:30pm 19.0 WSW 9 12 - - 0.0 - - - - - - -
18/09:00pm 18.0 SW 4 5 - - 0.0 - - - - - - -
18/08:30pm 18.8 W 6 10 - - 0.0 - - - - - - -
18/08:00pm 19.8 WNW 8 13 - - 0.0 - - - - - - -
18/07:30pm 19.9 W 9 17 - - 0.0 - - - - - - -
18/07:00pm 20.0 WNW 10 20 - - 0.0 - - - - - - -
18/06:30pm 20.1 WNW 7 16 - - 0.0 - - - - - - -

Other Formats:

Comma delimited format used in spreadsheet applications
http://www.bom.gov.au/fwo/IDN60701/IDN60701.95749.axf

JavaScript Object Notation format (JSON) in row-major order
http://www.bom.gov.au/fwo/IDN60701/IDN60701.95749.json